Cape Magnolia — 3FGP2 — position and weather

sailwx.info

Track history (hours):
 
Tides and Currents Weather Stations Pressure Air Temp Water Temp Dewpoint Dewpoint Depression Visibility Wind Speed Wind Dir Waves Ship Positions

Cape Magnolia

Last reported at 2014-Dec-13 19:31 UTC. Time now 2014-Dec-22 14:14 UTC.
Position N 01°16' E 104°16'.
Warning: this ship's position is 8 days out of date.

Length 292 m; draft 16.8 m.

Type: Ship. MMSI: 357427000.

Date/timePositionNaut miles runAvg speedWind from/ knotsBaromVisibWave heightAir tempDewpointWater temp
2014-Dec-13 19:31N 01°16' E 104°16'1010.7
2014-Dec-13 18:32N 01°15' E 104°05'6 5.2
2014-Dec-13 17:20N 01°17' E 103°59'0 0.1
2014-Dec-13 16:26N 01°17' E 103°59'0 0.2
2014-Dec-13 15:20N 01°17' E 103°59'0 0.1
2014-Dec-13 14:20N 01°17' E 103°59'0 0.0
2014-Dec-13 13:08N 01°17' E 103°59'0 0.0
2014-Dec-13 11:32N 01°17' E 103°59'0 0.0
2014-Dec-13 10:32N 01°17' E 103°59'0 0.1
2014-Dec-13 09:26N 01°17' E 103°59'0 0.2
2014-Dec-13 08:26N 01°17' E 103°59'0 0.1
2014-Dec-13 07:32N 01°17' E 103°59'0 0.0
2014-Dec-13 06:26N 01°17' E 103°59'0 0.1
2014-Dec-13 05:32N 01°17' E 103°59'0 0.1
2014-Dec-13 04:26N 01°17' E 103°59'0 0.0
2014-Dec-13 02:32N 01°17' E 103°59'0 0.0
2014-Dec-13 01:32N 01°17' E 103°59'0 0.0
2014-Dec-13 00:26N 01°17' E 103°59'0 0.0
2014-Dec-12 22:33N 01°17' E 103°59'2 1.8
2014-Dec-12 21:33N 01°16' E 103°58'4 3.7
2014-Dec-12 20:33N 01°13' E 103°55'6 5.6
2014-Dec-12 19:31N 01°11' E 103°50'6 6.3
2014-Dec-12 18:33N 01°07' E 103°45'65 8.0
2014-Dec-12 10:25N 01°38' E 102°47'12 9.1
2014-Dec-12 09:08N 01°43' E 102°37'6 9.3
2014-Dec-12 08:27N 01°45' E 102°31'9 9.5
2014-Dec-12 07:27N 01°49' E 102°22'9 9.4
2014-Dec-12 06:31N 01°53' E 102°14'  
Track history (hours):
 
Tides and Currents Weather Stations Pressure Air Temp Water Temp Dewpoint Dewpoint Depression Visibility Wind Speed Wind Dir Waves Ship Positions

Cape Magnolia

Last reported at 2014-Dec-13 19:31 UTC. Time now 2014-Dec-22 14:14 UTC.
Position N 01°16' E 104°16'.
Warning: this ship's position is 8 days out of date.

Length 292 m; draft 16.8 m.

Type: Ship. MMSI: 357427000.

Date/timePositionNaut miles runAvg speedWind from/ knotsBaromVisibWave heightAir tempDewpointWater temp
2014-Dec-13 19:31N 01°16' E 104°16'1010.7
2014-Dec-13 18:32N 01°15' E 104°05'6 5.2
2014-Dec-13 17:20N 01°17' E 103°59'0 0.1
2014-Dec-13 16:26N 01°17' E 103°59'0 0.2
2014-Dec-13 15:20N 01°17' E 103°59'0 0.1
2014-Dec-13 14:20N 01°17' E 103°59'0 0.0
2014-Dec-13 13:08N 01°17' E 103°59'0 0.0
2014-Dec-13 11:32N 01°17' E 103°59'0 0.0
2014-Dec-13 10:32N 01°17' E 103°59'0 0.1
2014-Dec-13 09:26N 01°17' E 103°59'0 0.2
2014-Dec-13 08:26N 01°17' E 103°59'0 0.1
2014-Dec-13 07:32N 01°17' E 103°59'0 0.0
2014-Dec-13 06:26N 01°17' E 103°59'0 0.1
2014-Dec-13 05:32N 01°17' E 103°59'0 0.1
2014-Dec-13 04:26N 01°17' E 103°59'0 0.0
2014-Dec-13 02:32N 01°17' E 103°59'0 0.0
2014-Dec-13 01:32N 01°17' E 103°59'0 0.0
2014-Dec-13 00:26N 01°17' E 103°59'0 0.0
2014-Dec-12 22:33N 01°17' E 103°59'2 1.8
2014-Dec-12 21:33N 01°16' E 103°58'4 3.7
2014-Dec-12 20:33N 01°13' E 103°55'6 5.6
2014-Dec-12 19:31N 01°11' E 103°50'6 6.3
2014-Dec-12 18:33N 01°07' E 103°45'65 8.0
2014-Dec-12 10:25N 01°38' E 102°47'12 9.1
2014-Dec-12 09:08N 01°43' E 102°37'6 9.3
2014-Dec-12 08:27N 01°45' E 102°31'9 9.5
2014-Dec-12 07:27N 01°49' E 102°22'9 9.4
2014-Dec-12 06:31N 01°53' E 102°14'  

Dump ship's entire track history